sensor_id;sensor_type;location;lat;lon;timestamp;pressure;altitude;pressure_sealevel;temperature;humidity
13836;BME280;6988;52.614;13.500;2023-10-19T00:03:12;54635.50;;;-143.77;72.21
13836;BME280;6988;52.614;13.500;2023-10-19T00:08:06;54606.78;;;-143.77;72.70
13836;BME280;6988;52.614;13.500;2023-10-19T00:13:05;54645.75;;;-143.77;72.83
13836;BME280;6988;52.614;13.500;2023-10-19T00:17:59;54658.06;;;-143.77;72.50
13836;BME280;6988;52.614;13.500;2023-10-19T00:23:00;54619.09;;;-143.77;72.16
13836;BME280;6988;52.614;13.500;2023-10-19T00:27:56;54647.81;;;-143.77;72.07
13836;BME280;6988;52.614;13.500;2023-10-19T00:32:51;54651.91;;;-143.77;72.45
13836;BME280;6988;52.614;13.500;2023-10-19T00:37:44;54621.13;;;-143.77;72.80
13836;BME280;6988;52.614;13.500;2023-10-19T00:42:37;54670.38;;;-143.77;72.59
13836;BME280;6988;52.614;13.500;2023-10-19T00:47:36;54625.25;;;-143.77;73.30
13836;BME280;6988;52.614;13.500;2023-10-19T00:52:31;54647.81;;;-143.77;72.55
13836;BME280;6988;52.614;13.500;2023-10-19T00:57:32;54641.66;;;-143.77;72.33
13836;BME280;6988;52.614;13.500;2023-10-19T01:02:26;54627.28;;;-143.77;72.88
13836;BME280;6988;52.614;13.500;2023-10-19T01:07:20;54641.66;;;-143.77;72.30
13836;BME280;6988;52.614;13.500;2023-10-19T01:12:17;54633.44;;;-143.77;72.44
13836;BME280;6988;52.614;13.500;2023-10-19T01:17:25;54653.97;;;-143.77;72.51
13836;BME280;6988;52.614;13.500;2023-10-19T01:22:18;54643.72;;;-143.77;72.20
13836;BME280;6988;52.614;13.500;2023-10-19T01:27:11;54619.09;;;-143.77;72.61
13836;BME280;6988;52.614;13.500;2023-10-19T01:32:05;54627.28;;;-143.77;72.66
13836;BME280;6988;52.614;13.500;2023-10-19T01:36:59;54656.03;;;-143.77;73.01
13836;BME280;6988;52.614;13.500;2023-10-19T01:41:53;54647.81;;;-143.77;73.37
13836;BME280;6988;52.614;13.500;2023-10-19T01:46:47;54676.53;;;-143.77;73.61
13836;BME280;6988;52.614;13.500;2023-10-19T01:51:40;54627.28;;;-143.77;73.96
13836;BME280;6988;52.614;13.500;2023-10-19T01:56:34;54639.59;;;-143.77;73.44
13836;BME280;6988;52.614;13.500;2023-10-19T02:01:29;54672.44;;;-143.77;74.37
13836;BME280;6988;52.614;13.500;2023-10-19T02:06:26;54656.03;;;-143.77;74.35
13836;BME280;6988;52.614;13.500;2023-10-19T02:11:21;54656.03;;;-143.77;74.17
13836;BME280;6988;52.614;13.500;2023-10-19T02:16:14;54668.34;;;-143.77;74.15
13836;BME280;6988;52.614;13.500;2023-10-19T02:21:06;54647.81;;;-143.77;74.05
13836;BME280;6988;52.614;13.500;2023-10-19T02:26:00;54639.59;;;-143.77;74.09
13836;BME280;6988;52.614;13.500;2023-10-19T02:30:53;54664.22;;;-143.77;74.45
13836;BME280;6988;52.614;13.500;2023-10-19T02:35:45;54633.44;;;-143.77;73.78
13836;BME280;6988;52.614;13.500;2023-10-19T02:40:38;54670.38;;;-143.77;74.04
13836;BME280;6988;52.614;13.500;2023-10-19T02:45:31;54664.22;;;-143.77;74.00
13836;BME280;6988;52.614;13.500;2023-10-19T02:50:24;54635.50;;;-143.77;73.60
13836;BME280;6988;52.614;13.500;2023-10-19T02:55:17;54678.59;;;-143.77;73.91
13836;BME280;6988;52.614;13.500;2023-10-19T03:00:12;54649.88;;;-143.77;74.08
13836;BME280;6988;52.614;13.500;2023-10-19T03:05:07;54643.72;;;-143.77;74.48
13836;BME280;6988;52.614;13.500;2023-10-19T03:10:06;54645.75;;;-143.77;74.28
13836;BME280;6988;52.614;13.500;2023-10-19T03:14:58;54672.44;;;-143.77;73.26
13836;BME280;6988;52.614;13.500;2023-10-19T03:19:51;54614.97;;;-143.77;73.32
13836;BME280;6988;52.614;13.500;2023-10-19T03:24:45;54643.72;;;-143.77;73.25
13836;BME280;6988;52.614;13.500;2023-10-19T03:29:36;54592.41;;;-143.77;73.06
13836;BME280;6988;52.614;13.500;2023-10-19T03:34:30;54627.28;;;-143.77;73.06
13836;BME280;6988;52.614;13.500;2023-10-19T03:39:23;54635.50;;;-143.77;72.30
13836;BME280;6988;52.614;13.500;2023-10-19T03:44:16;54660.13;;;-143.77;73.10
13836;BME280;6988;52.614;13.500;2023-10-19T03:49:10;54666.28;;;-143.77;72.88
13836;BME280;6988;52.614;13.500;2023-10-19T03:54:04;54631.41;;;-143.77;72.96
13836;BME280;6988;52.614;13.500;2023-10-19T03:58:58;54639.59;;;-143.77;73.10
13836;BME280;6988;52.614;13.500;2023-10-19T04:03:52;54627.28;;;-143.77;72.69
13836;BME280;6988;52.614;13.500;2023-10-19T04:08:46;54629.34;;;-143.77;72.53
13836;BME280;6988;52.614;13.500;2023-10-19T04:13:41;54662.19;;;-143.77;72.99
13836;BME280;6988;52.614;13.500;2023-10-19T04:18:33;54647.81;;;-143.77;72.79
13836;BME280;6988;52.614;13.500;2023-10-19T04:23:28;54627.28;;;-143.77;73.29
13836;BME280;6988;52.614;13.500;2023-10-19T04:28:19;54623.19;;;-143.77;72.88
13836;BME280;6988;52.614;13.500;2023-10-19T04:33:20;54647.81;;;-143.77;73.21
13836;BME280;6988;52.614;13.500;2023-10-19T04:38:15;54621.13;;;-143.77;73.03
13836;BME280;6988;52.614;13.500;2023-10-19T04:43:10;54680.66;;;-143.77;73.10
13836;BME280;6988;52.614;13.500;2023-10-19T04:48:02;54662.19;;;-143.77;73.48
13836;BME280;6988;52.614;13.500;2023-10-19T04:52:54;54656.03;;;-143.77;73.21
13836;BME280;6988;52.614;13.500;2023-10-19T04:57:46;54627.28;;;-143.77;73.45
13836;BME280;6988;52.614;13.500;2023-10-19T05:02:41;54672.44;;;-143.77;72.92
13836;BME280;6988;52.614;13.500;2023-10-19T05:07:33;54635.50;;;-143.77;73.21
13836;BME280;6988;52.614;13.500;2023-10-19T05:12:25;54631.41;;;-143.77;73.05
13836;BME280;6988;52.614;13.500;2023-10-19T05:17:17;54668.34;;;-143.77;73.32
13836;BME280;6988;52.614;13.500;2023-10-19T05:22:13;54643.72;;;-143.77;73.52
13836;BME280;6988;52.614;13.500;2023-10-19T05:27:04;54658.06;;;-143.77;73.45
13836;BME280;6988;52.614;13.500;2023-10-19T05:31:59;54682.69;;;-143.77;73.44
13836;BME280;6988;52.614;13.500;2023-10-19T05:36:52;54651.91;;;-143.77;73.10
13836;BME280;6988;52.614;13.500;2023-10-19T05:41:46;54653.97;;;-143.77;73.54
13836;BME280;6988;52.614;13.500;2023-10-19T05:46:38;54643.72;;;-143.77;73.26
13836;BME280;6988;52.614;13.500;2023-10-19T05:51:31;54660.13;;;-143.77;74.20
13836;BME280;6988;52.614;13.500;2023-10-19T05:56:23;54645.75;;;-143.77;73.77
13836;BME280;6988;52.614;13.500;2023-10-19T06:01:16;54647.81;;;-143.77;73.87
13836;BME280;6988;52.614;13.500;2023-10-19T06:06:12;54649.88;;;-143.77;74.54
13836;BME280;6988;52.614;13.500;2023-10-19T06:11:04;54649.88;;;-143.77;74.66
13836;BME280;6988;52.614;13.500;2023-10-19T06:15:56;54692.97;;;-143.77;74.46
13836;BME280;6988;52.614;13.500;2023-10-19T06:20:49;54639.59;;;-143.77;75.24
13836;BME280;6988;52.614;13.500;2023-10-19T06:25:42;54647.81;;;-143.77;75.66
13836;BME280;6988;52.614;13.500;2023-10-19T06:30:34;54672.44;;;-143.77;76.52
13836;BME280;6988;52.614;13.500;2023-10-19T06:35:26;54662.19;;;-143.77;77.29
13836;BME280;6988;52.614;13.500;2023-10-19T06:40:20;54651.91;;;-143.77;77.33
13836;BME280;6988;52.614;13.500;2023-10-19T06:45:16;54682.69;;;-143.77;78.00
13836;BME280;6988;52.614;13.500;2023-10-19T06:50:10;54647.81;;;-143.77;77.06
13836;BME280;6988;52.614;13.500;2023-10-19T06:55:04;54660.13;;;-143.77;77.32
13836;BME280;6988;52.614;13.500;2023-10-19T06:59:57;54647.81;;;-143.77;77.16
13836;BME280;6988;52.614;13.500;2023-10-19T07:04:49;54664.22;;;-143.77;78.15
13836;BME280;6988;52.614;13.500;2023-10-19T07:09:41;54639.59;;;-143.77;77.73
13836;BME280;6988;52.614;13.500;2023-10-19T07:14:33;54625.25;;;-143.77;77.64
13836;BME280;6988;52.614;13.500;2023-10-19T07:19:27;54639.59;;;-143.77;77.15
13836;BME280;6988;52.614;13.500;2023-10-19T07:24:19;54649.88;;;-143.77;76.89
13836;BME280;6988;52.614;13.500;2023-10-19T07:29:14;54637.56;;;-143.77;76.78
13836;BME280;6988;52.614;13.500;2023-10-19T07:34:07;54619.09;;;-143.77;76.60
13836;BME280;6988;52.614;13.500;2023-10-19T07:39:05;54631.41;;;-143.77;76.37
13836;BME280;6988;52.614;13.500;2023-10-19T07:44:04;54633.44;;;-143.77;76.59
13836;BME280;6988;52.614;13.500;2023-10-19T07:48:56;54627.28;;;-143.77;76.44
13836;BME280;6988;52.614;13.500;2023-10-19T07:53:49;54631.41;;;-143.77;76.42
13836;BME280;6988;52.614;13.500;2023-10-19T07:58:43;54623.19;;;-143.77;76.58
13836;BME280;6988;52.614;13.500;2023-10-19T08:03:36;54627.28;;;-143.77;77.29
13836;BME280;6988;52.614;13.500;2023-10-19T08:08:28;54629.34;;;-143.77;77.18
13836;BME280;6988;52.614;13.500;2023-10-19T08:13:24;54610.88;;;-143.77;76.14
13836;BME280;6988;52.614;13.500;2023-10-19T08:18:18;54651.91;;;-143.77;76.82
13836;BME280;6988;52.614;13.500;2023-10-19T08:23:12;54637.56;;;-143.77;75.64
13836;BME280;6988;52.614;13.500;2023-10-19T08:28:07;54662.19;;;-143.77;75.66
13836;BME280;6988;52.614;13.500;2023-10-19T08:32:59;54643.72;;;-143.77;76.01
13836;BME280;6988;52.614;13.500;2023-10-19T08:37:57;54637.56;;;-143.77;76.29
13836;BME280;6988;52.614;13.500;2023-10-19T08:42:49;54649.88;;;-143.77;76.19
13836;BME280;6988;52.614;13.500;2023-10-19T08:47:48;54695.00;;;-143.77;76.79
13836;BME280;6988;52.614;13.500;2023-10-19T08:52:47;54614.97;;;-143.77;75.33
13836;BME280;6988;52.614;13.500;2023-10-19T08:57:41;54582.16;;;-143.77;75.20
13836;BME280;6988;52.614;13.500;2023-10-19T09:02:33;54580.09;;;-143.77;75.11
13836;BME280;6988;52.614;13.500;2023-10-19T09:07:25;54586.25;;;-143.77;74.65
13836;BME280;6988;52.614;13.500;2023-10-19T09:12:21;54651.91;;;-143.77;74.47
13836;BME280;6988;52.614;13.500;2023-10-19T09:17:14;54578.03;;;-143.77;74.19
13836;BME280;6988;52.614;13.500;2023-10-19T09:22:09;54582.16;;;-143.77;73.45
13836;BME280;6988;52.614;13.500;2023-10-19T09:27:09;54578.03;;;-143.77;74.65
13836;BME280;6988;52.614;13.500;2023-10-19T09:32:03;54598.56;;;-143.77;74.68
13836;BME280;6988;52.614;13.500;2023-10-19T09:36:58;54602.66;;;-143.77;74.69
13836;BME280;6988;52.614;13.500;2023-10-19T09:41:52;54614.97;;;-143.77;74.96
13836;BME280;6988;52.614;13.500;2023-10-19T09:46:46;54612.94;;;-143.77;74.62
13836;BME280;6988;52.614;13.500;2023-10-19T09:51:41;54590.34;;;-143.77;74.38
13836;BME280;6988;52.614;13.500;2023-10-19T09:56:40;54553.41;;;-143.77;75.62
13836;BME280;6988;52.614;13.500;2023-10-19T10:02:04;54569.84;;;-143.77;75.20
13836;BME280;6988;52.614;13.500;2023-10-19T10:06:59;54602.66;;;-143.77;75.33
13836;BME280;6988;52.614;13.500;2023-10-19T10:11:53;54563.69;;;-143.77;75.20
13836;BME280;6988;52.614;13.500;2023-10-19T10:16:47;54578.03;;;-143.77;74.05
13836;BME280;6988;52.614;13.500;2023-10-19T10:21:39;54586.25;;;-143.77;73.74
13836;BME280;6988;52.614;13.500;2023-10-19T10:26:59;54602.66;;;-143.77;73.52
13836;BME280;6988;52.614;13.500;2023-10-19T10:31:51;54592.41;;;-143.77;73.16
13836;BME280;6988;52.614;13.500;2023-10-19T10:37:01;54594.47;;;-143.77;73.74
13836;BME280;6988;52.614;13.500;2023-10-19T10:41:59;54604.72;;;-143.77;73.74
13836;BME280;6988;52.614;13.500;2023-10-19T10:46:51;54649.88;;;-143.77;73.74
13836;BME280;6988;52.614;13.500;2023-10-19T10:51:43;54580.09;;;-143.77;73.72
13836;BME280;6988;52.614;13.500;2023-10-19T10:56:40;54582.16;;;-143.77;73.82
13836;BME280;6988;52.614;13.500;2023-10-19T11:01:34;54553.41;;;-143.77;74.05
13836;BME280;6988;52.614;13.500;2023-10-19T11:06:26;54590.34;;;-143.77;74.49
13836;BME280;6988;52.614;13.500;2023-10-19T11:11:17;54596.50;;;-143.77;74.50
13836;BME280;6988;52.614;13.500;2023-10-19T11:16:22;54594.47;;;-143.77;74.18
13836;BME280;6988;52.614;13.500;2023-10-19T11:21:15;54592.41;;;-143.77;74.22
13836;BME280;6988;52.614;13.500;2023-10-19T11:26:10;54578.03;;;-143.77;74.49
13836;BME280;6988;52.614;13.500;2023-10-19T11:31:13;54582.16;;;-143.77;74.80
13836;BME280;6988;52.614;13.500;2023-10-19T11:36:05;54590.34;;;-143.77;74.62
13836;BME280;6988;52.614;13.500;2023-10-19T11:40:59;54606.78;;;-143.77;75.03
13836;BME280;6988;52.614;13.500;2023-10-19T11:45:50;54569.84;;;-143.77;75.38
13836;BME280;6988;52.614;13.500;2023-10-19T11:50:42;54586.25;;;-143.77;76.04
13836;BME280;6988;52.614;13.500;2023-10-19T11:55:34;54594.47;;;-143.77;76.89
13836;BME280;6988;52.614;13.500;2023-10-19T12:00:27;54594.47;;;-143.77;77.50
13836;BME280;6988;52.614;13.500;2023-10-19T12:05:24;54602.66;;;-143.77;77.82
13836;BME280;6988;52.614;13.500;2023-10-19T12:10:16;54576.00;;;-143.77;77.88
13836;BME280;6988;52.614;13.500;2023-10-19T12:15:09;54528.78;;;-143.77;77.54
13836;BME280;6988;52.614;13.500;2023-10-19T12:20:06;54582.16;;;-143.77;76.89
13836;BME280;6988;52.614;13.500;2023-10-19T12:24:58;54588.31;;;-143.77;77.75
13836;BME280;6988;52.614;13.500;2023-10-19T12:29:50;54594.47;;;-143.77;77.96
13836;BME280;6988;52.614;13.500;2023-10-19T12:34:42;54610.88;;;-143.77;78.69
13836;BME280;6988;52.614;13.500;2023-10-19T12:39:36;54674.50;;;-143.77;78.91
13836;BME280;6988;52.614;13.500;2023-10-19T12:44:35;54590.34;;;-143.77;79.14
13836;BME280;6988;52.614;13.500;2023-10-19T12:49:31;54592.41;;;-143.77;79.22
13836;BME280;6988;52.614;13.500;2023-10-19T12:54:23;54614.97;;;-143.77;79.60
13836;BME280;6988;52.614;13.500;2023-10-19T12:59:16;54602.66;;;-143.77;79.29
13836;BME280;6988;52.614;13.500;2023-10-19T13:04:10;54580.09;;;-143.77;79.55
13836;BME280;6988;52.614;13.500;2023-10-19T13:09:07;54606.78;;;-143.77;79.50
13836;BME280;6988;52.614;13.500;2023-10-19T13:13:59;54610.88;;;-143.77;79.36
13836;BME280;6988;52.614;13.500;2023-10-19T13:18:53;54586.25;;;-143.77;80.06
13836;BME280;6988;52.614;13.500;2023-10-19T13:23:45;54567.78;;;-143.77;79.87
13836;BME280;6988;52.614;13.500;2023-10-19T13:28:37;54608.81;;;-143.77;80.01
13836;BME280;6988;52.614;13.500;2023-10-19T13:33:29;54590.34;;;-143.77;80.17
13836;BME280;6988;52.614;13.500;2023-10-19T13:38:22;54619.09;;;-143.77;80.91
13836;BME280;6988;52.614;13.500;2023-10-19T13:43:15;54598.56;;;-143.77;80.89
13836;BME280;6988;52.614;13.500;2023-10-19T13:48:11;54610.88;;;-143.77;80.69
13836;BME280;6988;52.614;13.500;2023-10-19T13:53:03;54631.41;;;-143.77;80.85
13836;BME280;6988;52.614;13.500;2023-10-19T13:57:57;54606.78;;;-143.77;81.36
13836;BME280;6988;52.614;13.500;2023-10-19T14:02:49;54606.78;;;-143.77;81.40
13836;BME280;6988;52.614;13.500;2023-10-19T14:07:42;54619.09;;;-143.77;81.39
13836;BME280;6988;52.614;13.500;2023-10-19T14:12:34;54627.28;;;-143.77;80.91
13836;BME280;6988;52.614;13.500;2023-10-19T14:17:27;54612.94;;;-143.77;81.26
13836;BME280;6988;52.614;13.500;2023-10-19T14:22:19;54619.09;;;-143.77;81.51
13836;BME280;6988;52.614;13.500;2023-10-19T14:27:10;54598.56;;;-143.77;81.52
13836;BME280;6988;52.614;13.500;2023-10-19T14:32:04;54602.66;;;-143.77;81.63
13836;BME280;6988;52.614;13.500;2023-10-19T14:36:57;54619.09;;;-143.77;82.00
13836;BME280;6988;52.614;13.500;2023-10-19T14:41:49;54600.63;;;-143.77;81.70
13836;BME280;6988;52.614;13.500;2023-10-19T14:46:41;54635.50;;;-143.77;82.00
13836;BME280;6988;52.614;13.500;2023-10-19T14:51:33;54606.78;;;-143.77;82.53
13836;BME280;6988;52.614;13.500;2023-10-19T14:56:27;54641.66;;;-143.77;83.08
13836;BME280;6988;52.614;13.500;2023-10-19T15:01:23;54619.09;;;-143.77;83.45
13836;BME280;6988;52.614;13.500;2023-10-19T15:06:16;54619.09;;;-143.77;83.83
13836;BME280;6988;52.614;13.500;2023-10-19T15:11:09;54602.66;;;-143.77;83.80
13836;BME280;6988;52.614;13.500;2023-10-19T15:16:08;54637.56;;;-143.77;84.38
13836;BME280;6988;52.614;13.500;2023-10-19T15:21:06;54619.09;;;-143.77;84.48
13836;BME280;6988;52.614;13.500;2023-10-19T15:25:59;54627.28;;;-143.77;84.61
13836;BME280;6988;52.614;13.500;2023-10-19T15:30:50;54602.66;;;-143.77;84.43
13836;BME280;6988;52.614;13.500;2023-10-19T15:35:47;54594.47;;;-143.77;84.65
13836;BME280;6988;52.614;13.500;2023-10-19T15:40:39;54578.03;;;-143.77;84.41
13836;BME280;6988;52.614;13.500;2023-10-19T15:45:32;54600.63;;;-143.77;84.77
13836;BME280;6988;52.614;13.500;2023-10-19T15:50:29;54602.66;;;-143.77;84.42
13836;BME280;6988;52.614;13.500;2023-10-19T15:55:22;54598.56;;;-143.77;84.31
13836;BME280;6988;52.614;13.500;2023-10-19T16:00:16;54619.09;;;-143.77;84.81
13836;BME280;6988;52.614;13.500;2023-10-19T16:05:08;54612.94;;;-143.77;85.15
13836;BME280;6988;52.614;13.500;2023-10-19T16:10:02;54643.72;;;-143.77;85.32
13836;BME280;6988;52.614;13.500;2023-10-19T16:14:56;54602.66;;;-143.77;85.95
13836;BME280;6988;52.614;13.500;2023-10-19T16:19:48;54641.66;;;-143.77;86.18
13836;BME280;6988;52.614;13.500;2023-10-19T16:24:41;54586.25;;;-143.77;86.45
13836;BME280;6988;52.614;13.500;2023-10-19T16:29:33;54590.34;;;-143.77;87.19
13836;BME280;6988;52.614;13.500;2023-10-19T16:34:26;54549.31;;;-143.77;87.10
13836;BME280;6988;52.614;13.500;2023-10-19T16:39:18;54594.47;;;-143.77;86.88
13836;BME280;6988;52.614;13.500;2023-10-19T16:44:12;54606.78;;;-143.77;87.34
13836;BME280;6988;52.614;13.500;2023-10-19T16:49:05;54635.50;;;-143.77;87.38
13836;BME280;6988;52.614;13.500;2023-10-19T16:53:58;54610.88;;;-143.77;87.50
13836;BME280;6988;52.614;13.500;2023-10-19T16:58:50;54614.97;;;-143.77;87.47
13836;BME280;6988;52.614;13.500;2023-10-19T17:03:42;54631.41;;;-143.77;87.71
13836;BME280;6988;52.614;13.500;2023-10-19T17:08:36;54621.13;;;-143.77;87.93
13836;BME280;6988;52.614;13.500;2023-10-19T17:13:29;54631.41;;;-143.77;87.79
13836;BME280;6988;52.614;13.500;2023-10-19T17:18:21;54614.97;;;-143.77;87.91
13836;BME280;6988;52.614;13.500;2023-10-19T17:23:13;54621.13;;;-143.77;88.02
13836;BME280;6988;52.614;13.500;2023-10-19T17:28:06;54641.66;;;-143.77;88.04
13836;BME280;6988;52.614;13.500;2023-10-19T17:32:59;54629.34;;;-143.77;88.04
13836;BME280;6988;52.614;13.500;2023-10-19T17:37:51;54623.19;;;-143.77;88.25
13836;BME280;6988;52.614;13.500;2023-10-19T17:42:43;54619.09;;;-143.77;88.47
13836;BME280;6988;52.614;13.500;2023-10-19T17:47:36;54631.41;;;-143.77;88.56
13836;BME280;6988;52.614;13.500;2023-10-19T17:52:29;54629.34;;;-143.77;88.51
13836;BME280;6988;52.614;13.500;2023-10-19T17:57:24;54639.59;;;-143.77;88.65
13836;BME280;6988;52.614;13.500;2023-10-19T18:02:16;54619.09;;;-143.77;88.97
13836;BME280;6988;52.614;13.500;2023-10-19T18:07:08;54606.78;;;-143.77;89.08
13836;BME280;6988;52.614;13.500;2023-10-19T18:12:02;54606.78;;;-143.77;89.02
13836;BME280;6988;52.614;13.500;2023-10-19T18:16:54;54598.56;;;-143.77;88.90
13836;BME280;6988;52.614;13.500;2023-10-19T18:21:46;54635.50;;;-143.77;89.23
13836;BME280;6988;52.614;13.500;2023-10-19T18:26:38;54614.97;;;-143.77;89.00
13836;BME280;6988;52.614;13.500;2023-10-19T18:31:31;54606.78;;;-143.77;89.24
13836;BME280;6988;52.614;13.500;2023-10-19T18:36:23;54643.72;;;-143.77;89.12
13836;BME280;6988;52.614;13.500;2023-10-19T18:41:15;54633.44;;;-143.77;88.89
13836;BME280;6988;52.614;13.500;2023-10-19T18:46:07;54604.72;;;-143.77;89.11
13836;BME280;6988;52.614;13.500;2023-10-19T18:51:02;54625.25;;;-143.77;88.71
13836;BME280;6988;52.614;13.500;2023-10-19T18:55:55;54635.50;;;-143.77;88.80
13836;BME280;6988;52.614;13.500;2023-10-19T19:00:52;54612.94;;;-143.77;88.82
13836;BME280;6988;52.614;13.500;2023-10-19T19:05:44;54645.75;;;-143.77;88.83
13836;BME280;6988;52.614;13.500;2023-10-19T19:10:37;54598.56;;;-143.77;88.34
13836;BME280;6988;52.614;13.500;2023-10-19T19:15:29;54617.03;;;-143.77;88.63
13836;BME280;6988;52.614;13.500;2023-10-19T19:20:20;54645.75;;;-143.77;88.83
13836;BME280;6988;52.614;13.500;2023-10-19T19:25:13;54643.72;;;-143.77;88.67
13836;BME280;6988;52.614;13.500;2023-10-19T19:30:08;54629.34;;;-143.77;88.56
13836;BME280;6988;52.614;13.500;2023-10-19T19:35:00;54635.50;;;-143.77;88.42
13836;BME280;6988;52.614;13.500;2023-10-19T19:39:54;54592.41;;;-143.77;88.33
13836;BME280;6988;52.614;13.500;2023-10-19T19:44:46;54598.56;;;-143.77;88.60
13836;BME280;6988;52.614;13.500;2023-10-19T19:49:39;54602.66;;;-143.77;88.43
13836;BME280;6988;52.614;13.500;2023-10-19T19:54:31;54606.78;;;-143.77;88.34
13836;BME280;6988;52.614;13.500;2023-10-19T19:59:23;54647.81;;;-143.77;88.43
13836;BME280;6988;52.614;13.500;2023-10-19T20:04:14;54617.03;;;-143.77;88.34
13836;BME280;6988;52.614;13.500;2023-10-19T20:09:08;54627.28;;;-143.77;88.44
13836;BME280;6988;52.614;13.500;2023-10-19T20:14:01;54614.97;;;-143.77;88.56
13836;BME280;6988;52.614;13.500;2023-10-19T20:18:55;54631.41;;;-143.77;88.65
13836;BME280;6988;52.614;13.500;2023-10-19T20:23:47;54641.66;;;-143.77;88.73
13836;BME280;6988;52.614;13.500;2023-10-19T20:28:41;54604.72;;;-143.77;88.63
13836;BME280;6988;52.614;13.500;2023-10-19T20:33:44;54674.50;;;-143.77;88.38
13836;BME280;6988;52.614;13.500;2023-10-19T20:38:36;54629.34;;;-143.77;88.69
13836;BME280;6988;52.614;13.500;2023-10-19T20:43:31;54612.94;;;-143.77;88.47
13836;BME280;6988;52.614;13.500;2023-10-19T20:48:24;54647.81;;;-143.77;88.76
13836;BME280;6988;52.614;13.500;2023-10-19T20:53:16;54639.59;;;-143.77;88.61
13836;BME280;6988;52.614;13.500;2023-10-19T20:58:08;54637.56;;;-143.77;88.76
13836;BME280;6988;52.614;13.500;2023-10-19T21:03:01;54635.50;;;-143.77;88.59
13836;BME280;6988;52.614;13.500;2023-10-19T21:07:55;54627.28;;;-143.77;88.80
13836;BME280;6988;52.614;13.500;2023-10-19T21:12:47;54623.19;;;-143.77;88.69
13836;BME280;6988;52.614;13.500;2023-10-19T21:17:41;54637.56;;;-143.77;88.79
13836;BME280;6988;52.614;13.500;2023-10-19T21:22:33;54639.59;;;-143.77;89.08
13836;BME280;6988;52.614;13.500;2023-10-19T21:27:26;54647.81;;;-143.77;88.56
13836;BME280;6988;52.614;13.500;2023-10-19T21:32:18;54639.59;;;-143.77;88.51
13836;BME280;6988;52.614;13.500;2023-10-19T21:37:10;54623.19;;;-143.77;88.36
13836;BME280;6988;52.614;13.500;2023-10-19T21:42:02;54614.97;;;-143.77;88.54
13836;BME280;6988;52.614;13.500;2023-10-19T22:19:28;54664.22;;;-143.77;88.41
13836;BME280;6988;52.614;13.500;2023-10-19T22:34:36;54656.03;;;-143.77;88.20
13836;BME280;6988;52.614;13.500;2023-10-19T22:39:29;54606.78;;;-143.77;87.71
